Main page
METAR-TAF:

METAR-TAF

Airports :

Gatwick Airport

London-Gatwick, England

latitude: 51-09N, longitude: 000-11W, elevation: 62 m

Current weather observation

The report was made 30 minutes ago, at 10:20 UTC
Wind 4 kt from the Southwest, varying between Southeast and West
Temperature 20°C
Humidity 64%
Pressure 1020 hPa
Visibility 10 km or more
Scattered clouds at a height of 3000 ft

METAR: EGKK 231020Z 22004KT 130V270 9999 SCT030 20/13 Q1020

Time: 11:50 (10:50 UTC)

Forecast

The report was made 5 hours and 56 minutes ago, at 04:54 UTC
Forecast valid from 23 at 06 UTC to 24 at 12 UTC
Wind 5 kt from the West/Southwest
Visibility 10 km or more
Few clouds at a height of 4000 ft
Probability 30%
from 23 at 06 UTC to 23 at 07 UTC
Visibility: 8000 m
Temporary
from 24 at 00 UTC to 24 at 06 UTC
Visibility: 6000 m
Probability 30%
from 24 at 02 UTC to 24 at 06 UTC
Visibility: 4000 m
mist,

TAF: EGKK 230454Z 2306/2412 25005KT 9999 FEW040 PROB30 2306/2307 8000 TEMPO 2400/2406 6000 PROB30 2402/2406 4000 BR

Weather observations and forecasts of more than 4000 airports (METAR and TAF reports).

The available stations are represented by yellow and red dots on the map.

Hover mouse over dot to see the name of the station.

Then click to see weather observations and forecasts.

To change the map : click on the green buttons with a black cross to zoom in, on the green button with a dash to zoom out, or on the green arrows for adjacent maps.


METAR-TAF: